Sunday, October 21, 2018, 2:02 AM EDT
Back to Local

KRKD, Rockland, Knox County Regional Airport

Location: Owls Head, ME, United States Lat: 44.067
Local Time: 2:02 AM EDT ( 6:02 GMT) Lon: -69.1
Time Zone: US/Eastern Elev: 55 ft

Show me the last for .
Show Decoded

2018-10-21 00:56 METAR KRKD 210456Z AUTO 26003KT 10SM CLR 03/02 A2955 RMK AO2 SLP008 T00280022
                 401610028 =
2018-10-20 23:56 METAR KRKD 210356Z AUTO 31004KT 10SM CLR 05/04 A2954 RMK AO2 SLP006 T00500039 =
2018-10-20 22:56 METAR KRKD 210256Z AUTO 30005KT 10SM CLR 09/06 A2954 RMK AO2 SLP004 T00890056
                 53008 =
2018-10-20 21:56 METAR KRKD 210156Z AUTO 28004KT 10SM CLR 05/04 A2952 RMK AO2 SLP000 T00500044 =
2018-10-20 20:56 METAR KRKD 210056Z AUTO 27003KT 10SM CLR 07/07 A2951 RMK AO2 SLP996 T00720067 =
2018-10-20 19:56 METAR KRKD 202356Z AUTO 24003KT 10SM CLR 09/08 A2951 RMK AO2 SLP996 T00940078
                 10161 20094 51008 =
2018-10-20 18:56 METAR KRKD 202256Z AUTO 22005KT 10SM CLR 12/09 A2951 RMK AO2 SLP993 T01170089 =
2018-10-20 17:56 METAR KRKD 202156Z AUTO 21004KT 10SM CLR 13/09 A2950 RMK AO2 SLP990 T01280089 =
2018-10-20 16:56 METAR KRKD 202056Z AUTO 21007KT 10SM CLR 15/09 A2949 RMK AO2 SLP987 T01500089
                 55007 =
2018-10-20 15:56 METAR KRKD 201956Z AUTO 23012KT 10SM CLR 16/09 A2948 RMK AO2 SLP985 T01560089 =
2018-10-20 14:56 METAR KRKD 201856Z AUTO 24017G23KT 10SM SCT044 16/09 A2949 RMK AO2 SLP988
                 T01560089 =
2018-10-20 13:48 METAR KRKD 201748Z AUTO 23013G21KT 10SM FEW001 BKN045 14/09 A2951 RMK AO2 PK WND
                 25026/1712 =
2018-10-20 12:56 METAR KRKD 201656Z AUTO 23014G23KT 10SM BKN041 15/09 A2952 RMK AO2 PK WND
                 23029/1642 SLP998 T01500094 =
2018-10-20 11:56 METAR KRKD 201556Z AUTO 23020G30KT 10SM FEW045 SCT100 15/09 A2954 RMK AO2 PK WND
                 23032/1523 SLP005 T01500094 =
2018-10-20 10:56 METAR KRKD 201456Z AUTO 23018G30KT 10SM CLR 16/09 A2954 RMK AO2 PK WND
                 24034/1436 SLP005 60000 T01560089 58017 =
2018-10-20 09:56 METAR KRKD 201356Z AUTO 23017G27KT 10SM FEW060 SCT080 14/09 A2956 RMK AO2 PK WND
                 23027/1349 RAB16E27 SLP012 P0000 T01440094 =
2018-10-20 08:56 METAR KRKD 201256Z AUTO 23012G18KT 10SM OVC055 14/10 A2958 RMK AO2 RAE21 SLP019
                 P0000 T01390100 =
2018-10-20 07:56 METAR KRKD 201156Z AUTO 22014G21KT 10SM -RA OVC070 13/09 A2959 RMK AO2 RAB48
                 SLP023 P0000 60000 T01330089 10133 20117 56023 =
2018-10-20 06:56 METAR KRKD 201056Z AUTO 21015G20KT 10SM BKN080 BKN100 13/09 A2961 RMK AO2 PK WND
                 21027/1019 SLP028 T01330089 =
2018-10-20 05:56 METAR KRKD 200956Z AUTO 22015G23KT 10SM OVC110 13/09 A2964 RMK AO2 PK WND
                 22026/0903 SLP039 T01330089 =
2018-10-20 04:56 METAR KRKD 200856Z AUTO 22015G27KT 10SM SCT110 13/08 A2966 RMK AO2 PK WND
                 22029/0840 SLP046 T01280083 58018 =
2018-10-20 03:56 METAR KRKD 200756Z AUTO 22015G20KT 190V250 10SM BKN110 12/08 A2968 RMK AO2 PK
                 WND 22026/0744 SLP052 T01220078 =
2018-10-20 02:56 METAR KRKD 200656Z AUTO 22013G22KT 10SM CLR 12/07 A2970 RMK AO2 PK WND
                 24026/0632 SLP060 T01220067 =

Support USWX by starting your Amazon purchase here.